createdAt,value
2023-03-13T00:01:36.714Z,24.63
2023-03-13T00:04:04.935Z,29.00
2023-03-13T00:06:33.849Z,35.73
2023-03-13T00:09:02.294Z,29.30
2023-03-13T00:11:31.255Z,28.27
2023-03-13T00:13:59.816Z,24.53
2023-03-13T00:16:28.809Z,37.17
2023-03-13T00:18:58.423Z,30.77
2023-03-13T00:21:27.065Z,26.07
2023-03-13T00:23:55.605Z,26.70
2023-03-13T00:26:24.242Z,26.80
2023-03-13T00:28:53.915Z,26.00
2023-03-13T00:31:22.675Z,31.03
2023-03-13T00:33:52.028Z,37.27
2023-03-13T00:36:21.188Z,29.30
2023-03-13T00:38:49.613Z,24.97
2023-03-13T00:41:17.860Z,35.60
2023-03-13T00:43:46.062Z,32.10
2023-03-13T00:46:15.844Z,29.10
2023-03-13T00:48:43.694Z,27.20
2023-03-13T00:51:13.877Z,30.50
2023-03-13T00:53:44.772Z,31.97
2023-03-13T00:56:13.192Z,35.00
2023-03-13T00:58:41.848Z,25.90
2023-03-13T01:01:10.936Z,25.70
2023-03-13T01:03:41.582Z,30.70
2023-03-13T01:06:10.646Z,32.00
2023-03-13T01:08:38.332Z,31.67
2023-03-13T01:11:08.069Z,29.70
2023-03-13T01:13:36.377Z,26.63
2023-03-13T01:16:04.627Z,28.33
2023-03-13T01:18:32.949Z,25.37
2023-03-13T01:21:02.098Z,22.90
2023-03-13T01:23:30.050Z,26.73
2023-03-13T01:25:58.227Z,28.43
2023-03-13T01:28:26.716Z,28.87
2023-03-13T01:30:55.414Z,30.87
2023-03-13T01:33:23.149Z,31.10
2023-03-13T01:35:51.193Z,27.27
2023-03-13T01:38:20.647Z,24.03
2023-03-13T01:40:49.183Z,25.20
2023-03-13T01:43:26.439Z,26.50
2023-03-13T01:45:57.784Z,22.47
2023-03-13T01:48:31.508Z,25.93
2023-03-13T01:51:00.463Z,31.33
2023-03-13T01:53:31.462Z,27.70
2023-03-13T01:56:00.537Z,22.47
2023-03-13T01:58:29.585Z,22.70
2023-03-13T02:00:59.011Z,26.33
2023-03-13T02:03:27.398Z,21.13
2023-03-13T02:05:56.431Z,23.97
2023-03-13T02:08:26.069Z,19.90
2023-03-13T02:11:00.119Z,23.10
2023-03-13T02:13:28.176Z,23.07
2023-03-13T02:15:56.013Z,25.40
2023-03-13T02:18:26.271Z,22.83
2023-03-13T02:20:57.776Z,22.40
2023-03-13T02:23:28.988Z,25.27
2023-03-13T02:25:58.377Z,23.93
2023-03-13T02:28:34.946Z,23.33
2023-03-13T02:31:06.284Z,27.00
2023-03-13T02:33:36.620Z,18.10
2023-03-13T02:36:04.541Z,21.97
2023-03-13T02:38:33.689Z,25.77
2023-03-13T02:41:03.867Z,26.00
2023-03-13T02:43:32.696Z,26.17
2023-03-13T02:46:02.645Z,18.60
2023-03-13T02:48:32.869Z,27.37
2023-03-13T02:51:01.733Z,22.23
2023-03-13T02:53:29.865Z,25.63
2023-03-13T02:55:57.919Z,23.10
2023-03-13T02:58:27.581Z,23.63
2023-03-13T03:00:55.642Z,18.73
2023-03-13T03:03:23.658Z,25.03
2023-03-13T03:05:51.335Z,21.77
2023-03-13T03:08:19.284Z,19.17
2023-03-13T03:10:47.184Z,27.03
2023-03-13T03:13:15.045Z,20.17
2023-03-13T03:15:44.723Z,20.83
2023-03-13T03:18:12.651Z,21.07
2023-03-13T03:20:40.439Z,19.53
2023-03-13T03:23:08.688Z,25.57
2023-03-13T03:25:36.469Z,16.90
2023-03-13T03:28:04.299Z,16.23
2023-03-13T03:30:33.058Z,17.27
2023-03-13T03:33:03.361Z,19.93
2023-03-13T03:35:31.554Z,17.13
2023-03-13T03:37:59.561Z,19.80
2023-03-13T03:40:28.060Z,16.33
2023-03-13T03:42:55.803Z,21.47
2023-03-13T03:45:23.686Z,17.87
2023-03-13T03:47:52.359Z,17.60
2023-03-13T03:50:22.286Z,21.43
2023-03-13T03:52:57.034Z,20.00
2023-03-13T03:55:26.453Z,25.40
2023-03-13T03:57:54.262Z,23.67
2023-03-13T04:00:40.588Z,16.90
2023-03-13T04:03:08.524Z,26.20
2023-03-13T04:05:37.593Z,20.73
2023-03-13T04:08:05.724Z,18.93
2023-03-13T04:10:34.417Z,18.90
2023-03-13T04:13:02.246Z,22.53
2023-03-13T04:15:30.429Z,21.70
2023-03-13T04:17:58.771Z,27.87
2023-03-13T04:20:28.711Z,28.27
2023-03-13T04:22:57.945Z,23.87
2023-03-13T04:25:25.963Z,20.03
2023-03-13T04:27:56.560Z,22.57
2023-03-13T04:30:28.752Z,28.80
2023-03-13T04:33:17.446Z,22.03
2023-03-13T04:35:52.407Z,18.77
2023-03-13T04:38:41.777Z,20.60
2023-03-13T04:41:28.575Z,25.10
2023-03-13T04:44:22.750Z,18.07
2023-03-13T04:46:56.986Z,23.30
2023-03-13T04:49:47.783Z,19.60
2023-03-13T04:52:22.181Z,19.77
2023-03-13T04:55:02.453Z,24.07
2023-03-13T04:57:47.248Z,20.20
2023-03-13T05:00:29.573Z,21.37
2023-03-13T05:03:24.054Z,26.07
2023-03-13T05:06:10.206Z,18.87
2023-03-13T05:08:38.703Z,17.70
2023-03-13T05:11:19.840Z,25.60
2023-03-13T05:17:31.174Z,23.70
2023-03-13T05:20:26.432Z,26.47
2023-03-13T05:23:14.539Z,21.83
2023-03-13T05:26:07.131Z,32.83
2023-03-13T05:28:51.676Z,30.53
2023-03-13T05:31:45.132Z,29.50
2023-03-13T05:34:32.799Z,22.50
2023-03-13T05:37:14.541Z,25.10
2023-03-13T05:39:45.424Z,20.77
2023-03-13T05:42:34.027Z,21.47
2023-03-13T05:45:19.822Z,24.33
2023-03-13T05:47:47.748Z,24.57
2023-03-13T05:50:18.396Z,26.00
2023-03-13T05:52:58.005Z,28.43
2023-03-13T05:55:48.522Z,28.60
2023-03-13T05:58:35.236Z,27.70
2023-03-13T06:01:14.348Z,24.90
2023-03-13T06:03:42.304Z,28.77
2023-03-13T06:06:11.479Z,23.50
2023-03-13T06:08:45.416Z,29.17
2023-03-13T06:11:13.700Z,27.63
2023-03-13T06:13:41.783Z,35.20
2023-03-13T06:16:21.864Z,30.07
2023-03-13T06:18:51.111Z,30.30
2023-03-13T06:21:19.043Z,24.93
2023-03-13T06:23:46.822Z,26.97
2023-03-13T06:26:14.573Z,28.30
2023-03-13T06:28:42.362Z,31.53
2023-03-13T06:31:11.739Z,32.30
2023-03-13T06:33:40.773Z,22.40
2023-03-13T06:36:09.078Z,24.90
2023-03-13T06:38:36.968Z,25.73
2023-03-13T06:41:04.932Z,22.13
2023-03-13T06:43:32.594Z,26.50
2023-03-13T06:46:04.520Z,32.43
2023-03-13T06:48:32.202Z,26.17
2023-03-13T06:51:01.833Z,27.43
2023-03-13T06:53:29.737Z,24.67
2023-03-13T06:55:57.464Z,30.97
2023-03-13T06:58:32.495Z,27.63
2023-03-13T07:01:01.252Z,25.57
2023-03-13T07:03:29.022Z,42.00
2023-03-13T07:05:58.080Z,31.57
2023-03-13T07:08:27.632Z,33.87
2023-03-13T07:10:58.973Z,24.20
2023-03-13T07:13:26.651Z,22.43
2023-03-13T07:15:54.683Z,24.77
2023-03-13T07:18:22.748Z,25.37
2023-03-13T07:20:54.233Z,32.33
2023-03-13T07:23:22.151Z,34.90
2023-03-13T07:25:58.133Z,27.03
2023-03-13T07:28:26.358Z,24.50
2023-03-13T07:30:54.165Z,30.40
2023-03-13T07:33:23.050Z,26.10
2023-03-13T07:35:51.444Z,55.23
2023-03-13T07:38:19.124Z,41.83
2023-03-13T07:40:50.843Z,33.67
2023-03-13T07:43:20.437Z,32.80
2023-03-13T07:45:51.659Z,32.83
2023-03-13T07:48:19.860Z,30.20
2023-03-13T07:50:48.195Z,32.83
2023-03-13T07:53:21.193Z,36.80
2023-03-13T07:55:57.143Z,35.27
2023-03-13T07:58:28.097Z,35.60
2023-03-13T08:00:56.627Z,23.30
2023-03-13T08:03:25.021Z,26.37
2023-03-13T08:06:00.426Z,37.93
2023-03-13T08:08:28.284Z,39.93
2023-03-13T08:11:00.948Z,30.00
2023-03-13T08:13:31.101Z,33.50
2023-03-13T08:16:05.820Z,29.83
2023-03-13T08:18:34.978Z,33.23
2023-03-13T08:21:04.274Z,27.67
2023-03-13T08:23:33.124Z,31.13
2023-03-13T08:26:05.595Z,29.33
2023-03-13T08:28:36.176Z,31.97
2023-03-13T08:31:09.316Z,27.70
2023-03-13T08:33:38.280Z,35.77
2023-03-13T08:36:10.561Z,32.83
2023-03-13T08:38:38.645Z,28.43
2023-03-13T08:41:06.567Z,36.73
2023-03-13T08:43:37.003Z,29.60
2023-03-13T08:46:04.826Z,24.23
2023-03-13T08:48:32.580Z,23.17
2023-03-13T08:51:04.064Z,21.87
2023-03-13T08:53:32.247Z,27.33
2023-03-13T08:56:00.220Z,24.17
2023-03-13T08:58:28.611Z,23.40
2023-03-13T09:01:01.974Z,26.23
2023-03-13T09:03:29.853Z,25.20
2023-03-13T09:05:57.915Z,29.53
2023-03-13T09:08:25.695Z,20.70
2023-03-13T09:10:58.061Z,22.33
2023-03-13T09:13:25.873Z,30.03
2023-03-13T09:15:58.936Z,23.93
2023-03-13T09:18:27.053Z,18.57
2023-03-13T09:20:55.088Z,25.77
2023-03-13T09:23:23.806Z,28.73
2023-03-13T09:25:53.615Z,19.17
2023-03-13T09:28:23.139Z,23.80
2023-03-13T09:30:52.100Z,25.50
2023-03-13T09:33:23.638Z,21.00
2023-03-13T09:35:51.647Z,20.63
2023-03-13T09:38:19.896Z,21.20
2023-03-13T09:41:03.572Z,24.70
2023-03-13T09:43:41.019Z,17.07
2023-03-13T09:46:11.889Z,24.13
2023-03-13T09:48:43.572Z,23.87
2023-03-13T09:51:15.552Z,24.97
2023-03-13T09:53:46.140Z,17.63
2023-03-13T09:56:17.397Z,15.87
2023-03-13T09:58:48.820Z,19.40
2023-03-13T10:01:18.833Z,16.73
2023-03-13T10:03:54.631Z,17.50
2023-03-13T10:06:25.132Z,20.90
2023-03-13T10:08:53.375Z,17.90
2023-03-13T10:11:26.965Z,25.50
2023-03-13T10:13:57.407Z,21.57
2023-03-13T10:16:26.705Z,27.90
2023-03-13T10:18:55.367Z,18.80
2023-03-13T10:21:27.850Z,19.37
2023-03-13T10:23:58.860Z,15.10
2023-03-13T10:26:28.624Z,18.50
2023-03-13T10:28:56.836Z,16.83
2023-03-13T10:31:27.613Z,14.73
2023-03-13T10:33:55.915Z,18.10
2023-03-13T10:36:24.930Z,15.53
2023-03-13T10:38:53.876Z,11.63
2023-03-13T10:41:26.980Z,20.03
2023-03-13T10:43:56.785Z,15.37
2023-03-13T10:46:28.613Z,19.57
2023-03-13T10:48:57.283Z,13.93
2023-03-13T10:51:31.662Z,11.90
2023-03-13T10:53:59.999Z,15.27
2023-03-13T10:56:30.360Z,22.63
2023-03-13T10:58:58.206Z,12.03
2023-03-13T11:01:26.702Z,12.30
2023-03-13T11:03:57.214Z,12.60
2023-03-13T11:06:28.898Z,13.10
2023-03-13T11:09:00.293Z,13.30
2023-03-13T11:11:31.233Z,10.57
2023-03-13T11:14:09.230Z,9.20
2023-03-13T11:16:40.643Z,11.33
2023-03-13T11:19:23.136Z,10.40
2023-03-13T11:21:58.590Z,10.97
2023-03-13T11:24:29.705Z,8.87
2023-03-13T11:27:05.619Z,8.97
2023-03-13T11:29:38.240Z,8.40
2023-03-13T11:32:13.085Z,9.20
2023-03-13T11:34:43.357Z,7.83
2023-03-13T11:37:14.746Z,7.67
2023-03-13T11:39:51.566Z,9.50
2023-03-13T11:42:29.403Z,8.03
2023-03-13T11:44:59.877Z,7.43
2023-03-13T11:47:38.745Z,10.77
2023-03-13T11:50:19.576Z,5.37
2023-03-13T11:53:02.346Z,5.73
2023-03-13T11:55:43.135Z,6.40
2023-03-13T11:58:18.378Z,8.63
2023-03-13T12:00:48.662Z,5.63
2023-03-13T12:03:19.064Z,5.00
2023-03-13T12:05:51.499Z,5.60
2023-03-13T12:08:21.584Z,4.97
2023-03-13T12:10:56.240Z,4.70
2023-03-13T12:13:29.914Z,6.63
2023-03-13T12:15:59.825Z,5.20
2023-03-13T12:18:31.717Z,5.90
2023-03-13T12:21:02.968Z,4.40
2023-03-13T12:23:36.095Z,6.27
2023-03-13T12:26:07.606Z,5.40
2023-03-13T12:28:38.710Z,5.30
2023-03-13T12:31:10.482Z,5.07
2023-03-13T12:33:41.081Z,6.80
2023-03-13T12:36:13.567Z,3.30
2023-03-13T12:38:42.476Z,4.20
2023-03-13T12:41:17.243Z,4.07
2023-03-13T12:44:00.643Z,3.20
2023-03-13T12:46:37.516Z,3.43
2023-03-13T12:49:29.414Z,3.70
2023-03-13T12:52:12.696Z,3.10
2023-03-13T12:54:49.635Z,3.20
2023-03-13T12:57:23.438Z,4.97
2023-03-13T12:59:53.416Z,6.17
2023-03-13T13:02:22.731Z,4.80
2023-03-13T13:04:51.168Z,4.67
2023-03-13T13:07:23.419Z,9.67
2023-03-13T13:10:02.827Z,7.77
2023-03-13T13:12:32.203Z,7.67
2023-03-13T13:15:06.458Z,7.10
2023-03-13T13:18:04.276Z,4.17
2023-03-13T13:20:35.992Z,5.30
2023-03-13T13:23:21.875Z,4.67
2023-03-13T13:25:50.114Z,4.23
2023-03-13T13:28:30.418Z,3.60
2023-03-13T13:30:58.219Z,3.10
2023-03-13T13:33:36.188Z,9.47
2023-03-13T13:36:22.415Z,4.57
2023-03-13T13:38:52.145Z,4.37
2023-03-13T13:41:28.277Z,6.13
2023-03-13T13:44:14.909Z,5.73
2023-03-13T13:46:46.731Z,5.73
2023-03-13T13:49:18.371Z,4.97
2023-03-13T13:52:00.871Z,5.13
2023-03-13T13:54:34.185Z,8.17
2023-03-13T13:57:03.556Z,6.77
2023-03-13T13:59:40.944Z,3.97
2023-03-13T14:02:23.451Z,7.37
2023-03-13T14:04:56.271Z,3.90
2023-03-13T14:07:30.937Z,5.00
2023-03-13T14:10:04.555Z,5.90
2023-03-13T14:12:33.236Z,5.43
2023-03-13T14:15:13.700Z,7.33
2023-03-13T14:17:42.835Z,5.03
2023-03-13T14:20:32.685Z,4.77
2023-03-13T14:23:01.784Z,4.73
2023-03-13T14:25:30.286Z,9.50
2023-03-13T14:27:58.373Z,26.03
2023-03-13T14:30:27.210Z,7.63
2023-03-13T14:32:55.169Z,17.97
2023-03-13T14:35:23.829Z,27.37
2023-03-13T14:37:54.486Z,9.63
2023-03-13T14:40:25.481Z,32.07
2023-03-13T14:45:40.648Z,10.77
2023-03-13T14:48:21.525Z,10.17
2023-03-13T14:50:49.914Z,10.10
2023-03-13T14:53:20.316Z,21.57
2023-03-13T14:55:48.773Z,18.90
2023-03-13T14:58:28.016Z,9.30
2023-03-13T15:00:56.269Z,15.40
2023-03-13T15:03:28.113Z,14.57
2023-03-13T15:06:07.830Z,19.67
2023-03-13T15:08:38.105Z,8.67
2023-03-13T15:11:18.571Z,15.17
2023-03-13T15:13:47.158Z,8.03
2023-03-13T15:16:15.930Z,13.03
2023-03-13T15:18:44.216Z,7.03
2023-03-13T15:21:22.684Z,18.00
2023-03-13T15:23:53.769Z,8.50
2023-03-13T15:26:21.767Z,8.60
2023-03-13T15:28:49.373Z,9.23
2023-03-13T15:31:17.565Z,9.30
2023-03-13T15:33:45.325Z,8.70
2023-03-13T15:36:13.573Z,6.10
2023-03-13T15:38:41.705Z,6.43
2023-03-13T15:41:10.717Z,6.20
2023-03-13T15:43:38.682Z,7.20
2023-03-13T15:46:08.586Z,9.50
2023-03-13T15:48:38.117Z,6.30
2023-03-13T15:51:06.028Z,7.03
2023-03-13T15:53:37.885Z,7.27
2023-03-13T15:56:12.767Z,8.23
2023-03-13T15:58:42.715Z,8.57
2023-03-13T16:01:11.021Z,5.87
2023-03-13T16:03:39.604Z,7.67
2023-03-13T16:06:13.334Z,8.00
2023-03-13T16:08:40.981Z,10.73
2023-03-13T16:11:08.620Z,9.17
2023-03-13T16:13:36.715Z,7.13
2023-03-13T16:16:11.831Z,7.07
2023-03-13T16:18:39.964Z,11.93
2023-03-13T16:21:08.566Z,5.43
2023-03-13T16:23:36.654Z,10.10
2023-03-13T16:26:04.813Z,6.57
2023-03-13T16:28:32.535Z,11.10
2023-03-13T16:31:00.878Z,5.90
2023-03-13T16:33:30.164Z,6.77
2023-03-13T16:35:57.991Z,7.50
2023-03-13T16:38:25.721Z,6.00
2023-03-13T16:40:54.022Z,5.20
2023-03-13T16:43:21.568Z,6.70
2023-03-13T16:45:49.388Z,5.27
2023-03-13T16:48:19.219Z,7.10
2023-03-13T16:50:48.379Z,6.83
2023-03-13T16:53:15.996Z,9.80
2023-03-13T16:55:44.247Z,8.57
2023-03-13T16:58:13.011Z,9.27
2023-03-13T17:00:40.657Z,8.47
2023-03-13T17:03:08.779Z,6.27
2023-03-13T17:05:36.616Z,8.63
2023-03-13T17:08:05.748Z,5.63
2023-03-13T17:10:34.250Z,5.63
2023-03-13T17:13:02.691Z,6.50
2023-03-13T17:15:32.337Z,10.40
2023-03-13T17:18:00.197Z,6.17
2023-03-13T17:20:28.817Z,4.90
2023-03-13T17:22:57.235Z,9.83
2023-03-13T17:25:26.446Z,6.10
2023-03-13T17:27:54.394Z,5.43
2023-03-13T17:30:23.670Z,6.93
2023-03-13T17:32:51.723Z,6.60
2023-03-13T17:35:20.452Z,6.80
2023-03-13T17:37:48.919Z,9.97
2023-03-13T17:40:17.903Z,8.00
2023-03-13T17:42:47.108Z,7.80
2023-03-13T17:45:15.309Z,8.20
2023-03-13T17:47:43.611Z,6.03
2023-03-13T17:50:18.802Z,5.83
2023-03-13T17:52:46.632Z,8.07
2023-03-13T17:55:14.589Z,8.10
2023-03-13T17:57:43.926Z,6.53
2023-03-13T18:00:20.325Z,5.87
2023-03-13T18:02:48.239Z,8.70
2023-03-13T18:05:16.401Z,5.53
2023-03-13T18:07:44.820Z,5.47
2023-03-13T18:10:16.505Z,10.83
2023-03-13T18:12:44.431Z,7.20
2023-03-13T18:15:12.506Z,9.83
2023-03-13T18:17:41.999Z,5.77
2023-03-13T18:20:15.280Z,6.50
2023-03-13T18:22:43.374Z,7.87
2023-03-13T18:25:11.636Z,5.80
2023-03-13T18:27:39.484Z,7.80
2023-03-13T18:30:12.787Z,5.10
2023-03-13T18:32:41.964Z,6.07
2023-03-13T18:35:10.074Z,5.73
2023-03-13T18:37:37.751Z,7.60
2023-03-13T18:40:12.408Z,7.20
2023-03-13T18:42:40.318Z,14.23
2023-03-13T18:45:08.840Z,22.20
2023-03-13T18:47:38.118Z,12.40
2023-03-13T18:50:17.187Z,12.77
2023-03-13T18:52:45.197Z,17.17
2023-03-13T18:55:12.936Z,11.43
2023-03-13T18:57:41.199Z,13.90
2023-03-13T19:00:14.598Z,12.57
2023-03-13T19:02:43.795Z,13.97
2023-03-13T19:05:13.197Z,8.30
2023-03-13T19:07:41.234Z,11.60
2023-03-13T19:10:17.597Z,16.13
2023-03-13T19:12:45.472Z,11.10
2023-03-13T19:15:14.604Z,12.60
2023-03-13T19:17:44.691Z,7.90
2023-03-13T19:20:16.152Z,7.67
2023-03-13T19:22:44.212Z,7.47
2023-03-13T19:25:12.474Z,7.00
2023-03-13T19:27:40.743Z,8.67
2023-03-13T19:30:16.753Z,7.17
2023-03-13T19:32:44.879Z,9.43
2023-03-13T19:35:13.415Z,7.00
2023-03-13T19:38:05.203Z,7.10
2023-03-13T19:40:32.926Z,11.20
2023-03-13T19:43:00.588Z,11.17
2023-03-13T19:45:29.172Z,8.73
2023-03-13T19:47:56.788Z,9.63
2023-03-13T19:50:27.460Z,8.00
2023-03-13T19:52:55.474Z,11.80
2023-03-13T19:55:24.571Z,6.83
2023-03-13T19:57:52.565Z,7.77
2023-03-13T20:00:21.203Z,8.20
2023-03-13T20:02:48.943Z,26.23
2023-03-13T20:05:16.870Z,8.17
2023-03-13T20:07:45.557Z,15.83
2023-03-13T20:10:13.550Z,16.17
2023-03-13T20:12:42.785Z,7.70
2023-03-13T20:15:11.475Z,8.20
2023-03-13T20:17:39.297Z,4.97
2023-03-13T20:20:08.487Z,7.47
2023-03-13T20:22:36.351Z,9.40
2023-03-13T20:25:04.203Z,13.60
2023-03-13T20:27:31.891Z,10.80
2023-03-13T20:30:02.189Z,9.80
2023-03-13T20:32:29.890Z,8.57
2023-03-13T20:34:58.275Z,7.17
2023-03-13T20:37:26.301Z,11.00
2023-03-13T20:39:54.034Z,8.33
2023-03-13T20:42:22.597Z,9.60
2023-03-13T20:44:50.431Z,9.33
2023-03-13T20:47:19.765Z,13.00
2023-03-13T20:49:48.377Z,9.30
2023-03-13T20:52:16.299Z,7.73
2023-03-13T20:54:43.903Z,8.40
2023-03-13T20:57:11.503Z,7.10
2023-03-13T20:59:41.396Z,8.20
2023-03-13T21:02:09.801Z,7.97
2023-03-13T21:04:39.147Z,8.43
2023-03-13T21:07:07.011Z,5.57
2023-03-13T21:09:35.361Z,6.53
2023-03-13T21:12:03.483Z,9.27
2023-03-13T21:14:33.313Z,6.40
2023-03-13T21:17:02.482Z,6.13
2023-03-13T21:19:30.288Z,9.23
2023-03-13T21:21:59.399Z,5.97
2023-03-13T21:24:27.426Z,7.87
2023-03-13T21:26:55.301Z,6.90
2023-03-13T21:29:22.901Z,7.07
2023-03-13T21:31:51.462Z,6.97
2023-03-13T21:34:19.131Z,5.57
2023-03-13T21:36:46.796Z,5.33
2023-03-13T21:39:15.981Z,5.80
2023-03-13T21:41:43.756Z,5.27
2023-03-13T21:44:12.780Z,6.20
2023-03-13T21:46:40.505Z,5.20
2023-03-13T21:49:08.495Z,7.00
2023-03-13T21:51:36.501Z,4.90
2023-03-13T21:54:05.353Z,5.50
2023-03-13T21:56:34.341Z,5.30
2023-03-13T21:59:02.374Z,6.77
2023-03-13T22:01:30.044Z,8.20
2023-03-13T22:03:57.809Z,4.70
2023-03-13T22:06:25.581Z,6.20
2023-03-13T22:08:53.365Z,5.80
2023-03-13T22:11:21.112Z,5.00
2023-03-13T22:13:50.284Z,4.90
2023-03-13T22:16:18.025Z,6.57
2023-03-13T22:18:45.794Z,4.70
2023-03-13T22:21:15.258Z,6.20
2023-03-13T22:23:43.032Z,3.90
2023-03-13T22:26:11.282Z,5.60
2023-03-13T22:28:39.642Z,4.20
2023-03-13T22:31:09.279Z,4.47
2023-03-13T22:33:37.990Z,5.73
2023-03-13T22:36:06.179Z,3.63
2023-03-13T22:38:38.630Z,5.57
2023-03-13T22:41:07.748Z,6.03
2023-03-13T22:43:35.929Z,4.27
2023-03-13T22:46:04.732Z,3.70
2023-03-13T22:48:33.924Z,6.60
2023-03-13T22:51:02.889Z,4.13
2023-03-13T22:53:31.260Z,4.20
2023-03-13T22:55:58.987Z,4.30
2023-03-13T22:58:27.908Z,5.40
2023-03-13T23:00:55.926Z,4.03
2023-03-13T23:03:23.965Z,5.20
2023-03-13T23:05:53.465Z,4.37
2023-03-13T23:08:21.373Z,4.47
2023-03-13T23:10:48.990Z,4.83
2023-03-13T23:13:16.778Z,4.77
2023-03-13T23:15:59.683Z,5.40
2023-03-13T23:18:28.553Z,4.40
2023-03-13T23:20:57.579Z,3.47
2023-03-13T23:23:25.455Z,3.03
2023-03-13T23:25:53.461Z,3.03
2023-03-13T23:28:21.144Z,2.73
2023-03-13T23:30:49.065Z,3.30
2023-03-13T23:33:17.130Z,5.17
2023-03-13T23:35:45.281Z,5.43
2023-03-13T23:38:18.120Z,2.83
2023-03-13T23:40:45.922Z,4.67
2023-03-13T23:43:13.820Z,5.63
2023-03-13T23:45:41.721Z,4.03
2023-03-13T23:48:09.528Z,5.03
2023-03-13T23:50:37.412Z,3.90
2023-03-13T23:53:07.095Z,2.43
2023-03-13T23:55:36.152Z,3.10
2023-03-13T23:58:04.353Z,3.30
